createdAt,value
2018-05-31T00:00:56.405Z,29.50
2018-05-31T00:03:24.800Z,34.80
2018-05-31T00:05:53.135Z,34.33
2018-05-31T00:08:21.507Z,33.37
2018-05-31T00:10:49.868Z,28.50
2018-05-31T00:13:18.227Z,31.50
2018-05-31T00:15:46.879Z,28.70
2018-05-31T00:18:15.232Z,44.43
2018-05-31T00:20:43.620Z,42.73
2018-05-31T00:23:12.752Z,37.37
2018-05-31T00:25:41.159Z,46.77
2018-05-31T00:28:10.265Z,35.23
2018-05-31T00:30:39.430Z,37.87
2018-05-31T00:33:07.753Z,37.13
2018-05-31T00:35:36.103Z,30.27
2018-05-31T00:38:04.568Z,35.63
2018-05-31T00:40:33.030Z,35.50
2018-05-31T00:43:01.512Z,33.80
2018-05-31T00:45:30.151Z,35.33
2018-05-31T00:47:58.491Z,37.90
2018-05-31T00:50:26.858Z,34.53
2018-05-31T00:52:55.476Z,36.23
2018-05-31T00:55:42.192Z,32.37
2018-05-31T00:58:10.717Z,31.83
2018-05-31T01:00:39.074Z,42.43
2018-05-31T01:03:07.479Z,32.80
2018-05-31T01:05:35.867Z,30.67
2018-05-31T01:08:04.384Z,29.83
2018-05-31T01:10:32.707Z,46.60
2018-05-31T01:13:01.059Z,31.73
2018-05-31T01:15:29.531Z,28.60
2018-05-31T01:17:57.853Z,28.30
2018-05-31T01:20:26.739Z,48.20
2018-05-31T01:22:55.158Z,35.73
2018-05-31T01:25:25.247Z,34.03
2018-05-31T01:27:53.616Z,40.23
2018-05-31T01:30:21.975Z,27.57
2018-05-31T01:32:50.971Z,31.93
2018-05-31T01:35:19.335Z,36.33
2018-05-31T01:37:48.737Z,31.33
2018-05-31T01:40:17.299Z,32.27
2018-05-31T01:42:45.947Z,29.50
2018-05-31T01:45:14.417Z,29.40
2018-05-31T01:47:43.087Z,32.60
2018-05-31T01:50:11.622Z,25.37
2018-05-31T01:52:40.000Z,29.20
2018-05-31T01:55:08.332Z,31.80
2018-05-31T01:57:37.007Z,28.60
2018-05-31T02:00:05.732Z,26.87
2018-05-31T02:02:34.102Z,27.20
2018-05-31T02:05:02.754Z,28.23
2018-05-31T02:07:31.973Z,27.63
2018-05-31T02:10:00.339Z,28.57
2018-05-31T02:12:29.090Z,26.77
2018-05-31T02:14:57.428Z,27.50
2018-05-31T02:17:25.896Z,31.80
2018-05-31T02:19:54.542Z,29.17
2018-05-31T02:22:23.080Z,28.47
2018-05-31T02:24:51.444Z,32.27
2018-05-31T02:27:20.209Z,28.17
2018-05-31T02:29:48.692Z,45.00
2018-05-31T02:32:17.811Z,34.20
2018-05-31T02:34:46.323Z,32.27
2018-05-31T02:37:14.657Z,29.73
2018-05-31T02:39:44.044Z,34.97
2018-05-31T02:42:12.560Z,40.07
2018-05-31T02:44:40.994Z,29.93
2018-05-31T02:47:09.719Z,33.87
2018-05-31T02:49:38.587Z,30.70
2018-05-31T02:52:07.071Z,29.10
2018-05-31T02:54:35.542Z,31.10
2018-05-31T02:57:04.696Z,42.13
2018-05-31T02:59:33.152Z,37.17
2018-05-31T03:02:01.471Z,35.47
2018-05-31T03:04:29.830Z,47.60
2018-05-31T03:06:58.213Z,40.43
2018-05-31T03:09:26.667Z,34.20
2018-05-31T03:11:55.549Z,32.50
2018-05-31T03:14:23.958Z,35.90
2018-05-31T03:16:52.302Z,34.67
2018-05-31T03:19:21.446Z,41.47
2018-05-31T03:21:49.792Z,37.63
2018-05-31T03:24:18.191Z,35.53
2018-05-31T03:26:46.608Z,34.80
2018-05-31T03:29:14.953Z,45.80
2018-05-31T03:31:43.432Z,38.67
2018-05-31T03:34:12.491Z,38.23
2018-05-31T03:36:40.816Z,41.57
2018-05-31T03:39:09.226Z,43.70
2018-05-31T03:41:37.779Z,37.07
2018-05-31T03:44:06.116Z,44.67
2018-05-31T03:46:35.498Z,39.40
2018-05-31T03:49:04.049Z,45.57
2018-05-31T03:51:32.394Z,36.80
2018-05-31T03:54:00.707Z,45.03
2018-05-31T03:56:29.636Z,45.03
2018-05-31T03:58:57.964Z,47.90
2018-05-31T04:01:26.320Z,44.90
2018-05-31T04:03:54.768Z,39.97
2018-05-31T04:06:23.077Z,41.73
2018-05-31T04:08:51.419Z,47.17
2018-05-31T04:11:19.755Z,37.93
2018-05-31T04:13:48.257Z,37.57
2018-05-31T04:16:16.900Z,49.17
2018-05-31T04:18:46.405Z,46.80
2018-05-31T04:21:14.746Z,48.87
2018-05-31T04:23:43.087Z,38.53
2018-05-31T04:26:11.462Z,39.60
2018-05-31T04:28:39.817Z,51.87
2018-05-31T04:31:08.918Z,37.70
2018-05-31T04:38:04.362Z,38.17
2018-05-31T04:40:33.827Z,37.50
2018-05-31T04:43:02.310Z,38.30
2018-05-31T04:45:30.652Z,33.20
2018-05-31T04:47:59.815Z,39.03
2018-05-31T04:50:29.223Z,38.70
2018-05-31T04:52:57.593Z,40.50
2018-05-31T04:55:26.836Z,37.40
2018-05-31T04:57:55.161Z,43.53
2018-05-31T05:00:23.507Z,43.60
2018-05-31T05:02:51.897Z,59.23
2018-05-31T05:05:20.223Z,53.93
2018-05-31T05:07:48.580Z,49.07
2018-05-31T05:10:16.959Z,41.83
2018-05-31T05:12:46.156Z,33.67
2018-05-31T05:15:14.463Z,54.47
2018-05-31T05:17:43.336Z,35.93
2018-05-31T05:20:11.665Z,39.60
2018-05-31T05:22:40.018Z,35.70
2018-05-31T05:25:08.372Z,38.80
2018-05-31T05:27:36.697Z,41.27
2018-05-31T05:30:05.024Z,33.17
2018-05-31T05:32:34.179Z,53.60
2018-05-31T05:35:02.474Z,52.13
2018-05-31T05:37:30.867Z,40.23
2018-05-31T05:40:00.169Z,50.00
2018-05-31T05:42:29.347Z,49.47
2018-05-31T05:44:57.756Z,50.83
2018-05-31T05:47:27.052Z,40.77
2018-05-31T05:49:56.279Z,46.23
2018-05-31T05:52:24.715Z,47.60
2018-05-31T05:54:53.207Z,46.67
2018-05-31T05:57:21.631Z,47.00
2018-05-31T05:59:50.076Z,46.70
2018-05-31T06:02:18.959Z,41.00
2018-05-31T06:04:48.170Z,40.53
2018-05-31T06:07:16.573Z,45.47
2018-05-31T06:09:45.020Z,39.43
2018-05-31T06:12:13.413Z,31.63
2018-05-31T06:14:41.780Z,38.77
2018-05-31T06:17:10.241Z,28.73
2018-05-31T06:19:38.743Z,25.70
2018-05-31T06:22:07.171Z,39.03
2018-05-31T06:24:35.895Z,36.60
2018-05-31T06:27:04.301Z,38.40
2018-05-31T06:29:32.789Z,31.23
2018-05-31T06:32:01.426Z,29.43
2018-05-31T06:34:29.948Z,30.33
2018-05-31T06:36:58.432Z,29.17
2018-05-31T06:39:26.879Z,27.03
2018-05-31T06:45:44.467Z,27.10
2018-05-31T06:48:13.656Z,33.60
2018-05-31T06:50:42.179Z,33.33
2018-05-31T06:53:10.594Z,38.40
2018-05-31T06:55:39.065Z,28.20
2018-05-31T06:58:07.479Z,27.20
2018-05-31T07:00:35.963Z,30.43
2018-05-31T07:03:05.085Z,25.73
2018-05-31T07:05:34.260Z,30.27
2018-05-31T07:08:02.835Z,28.23
2018-05-31T07:10:31.988Z,28.00
2018-05-31T07:13:00.561Z,30.23
2018-05-31T07:15:29.105Z,25.00
2018-05-31T07:17:57.528Z,27.10
2018-05-31T07:20:25.906Z,25.80
2018-05-31T07:22:54.345Z,23.63
2018-05-31T07:25:23.632Z,22.07
2018-05-31T07:27:52.017Z,22.33
2018-05-31T07:30:20.924Z,29.27
2018-05-31T07:32:49.263Z,20.30
2018-05-31T07:35:17.594Z,22.50
2018-05-31T07:37:46.728Z,28.03
2018-05-31T07:40:15.057Z,33.40
2018-05-31T07:42:43.412Z,22.33
2018-05-31T07:45:12.534Z,20.30
2018-05-31T07:47:41.658Z,21.97
2018-05-31T07:50:09.999Z,21.43
2018-05-31T07:52:38.758Z,26.43
2018-05-31T07:55:07.108Z,28.13
2018-05-31T07:57:35.437Z,25.57
2018-05-31T08:00:03.784Z,23.03
2018-05-31T08:02:32.098Z,30.87
2018-05-31T08:05:00.413Z,22.30
2018-05-31T08:07:29.538Z,24.03
2018-05-31T08:09:57.874Z,28.67
2018-05-31T08:12:26.250Z,26.27
2018-05-31T08:14:55.858Z,21.00
2018-05-31T08:17:24.191Z,21.27
2018-05-31T08:19:52.530Z,19.70
2018-05-31T08:22:21.652Z,19.00
2018-05-31T08:24:49.983Z,18.87
2018-05-31T08:27:18.315Z,28.03
2018-05-31T08:29:46.685Z,19.53
2018-05-31T08:32:15.021Z,31.97
2018-05-31T08:34:43.347Z,22.73
2018-05-31T08:37:11.983Z,20.57
2018-05-31T08:39:40.328Z,25.50
2018-05-31T08:42:08.669Z,17.47
2018-05-31T08:44:37.050Z,19.30
2018-05-31T08:50:44.168Z,18.87
2018-05-31T08:53:12.571Z,17.17
2018-05-31T08:55:41.695Z,24.40
2018-05-31T08:58:10.586Z,19.13
2018-05-31T09:00:38.960Z,19.27
2018-05-31T09:03:07.318Z,20.13
2018-05-31T09:05:35.718Z,23.80
2018-05-31T09:08:04.044Z,17.60
2018-05-31T09:10:32.379Z,18.27
2018-05-31T09:13:00.725Z,18.03
2018-05-31T09:15:29.037Z,24.93
2018-05-31T09:17:57.345Z,18.97
2018-05-31T09:20:26.218Z,21.63
2018-05-31T09:22:54.513Z,16.87
2018-05-31T09:25:22.874Z,27.13
2018-05-31T09:27:51.977Z,18.53
2018-05-31T09:30:21.068Z,20.23
2018-05-31T09:32:49.413Z,17.80
2018-05-31T09:35:17.795Z,19.47
2018-05-31T09:37:46.132Z,19.37
2018-05-31T09:40:14.533Z,30.40
2018-05-31T09:42:43.910Z,18.97
2018-05-31T09:45:12.440Z,26.87
2018-05-31T09:47:40.864Z,25.60
2018-05-31T09:50:09.298Z,20.77
2018-05-31T09:52:37.670Z,31.43
2018-05-31T09:55:06.022Z,15.17
2018-05-31T09:57:34.363Z,21.23
2018-05-31T10:00:02.701Z,17.30
2018-05-31T10:02:31.016Z,16.07
2018-05-31T10:04:59.616Z,18.40
2018-05-31T10:07:28.720Z,23.80
2018-05-31T10:09:57.801Z,14.23
2018-05-31T10:12:26.923Z,19.40
2018-05-31T10:14:55.261Z,18.50
2018-05-31T10:17:23.602Z,21.77
2018-05-31T10:19:51.985Z,18.43
2018-05-31T10:22:20.325Z,17.93
2018-05-31T10:24:48.714Z,19.03
2018-05-31T10:27:17.386Z,19.43
2018-05-31T10:29:46.499Z,16.90
2018-05-31T10:32:14.824Z,20.17
2018-05-31T10:34:43.258Z,36.70
2018-05-31T10:37:11.619Z,15.83
2018-05-31T10:39:40.724Z,17.93
2018-05-31T10:42:09.876Z,23.73
2018-05-31T10:44:38.194Z,28.33
2018-05-31T10:47:07.282Z,19.63
2018-05-31T10:49:36.691Z,25.03
2018-05-31T10:52:05.025Z,22.40
2018-05-31T10:54:33.381Z,22.37
2018-05-31T10:57:01.778Z,25.93
2018-05-31T10:59:30.136Z,23.40
2018-05-31T11:01:58.470Z,29.20
2018-05-31T11:04:26.817Z,33.00
2018-05-31T11:06:55.162Z,33.10
2018-05-31T11:09:23.501Z,27.13
2018-05-31T11:11:52.122Z,32.27
2018-05-31T11:14:20.470Z,25.87
2018-05-31T11:16:48.817Z,30.20
2018-05-31T11:19:17.151Z,39.33
2018-05-31T11:21:46.360Z,27.97
2018-05-31T11:24:14.704Z,43.30
2018-05-31T11:26:43.075Z,23.90
2018-05-31T11:29:11.507Z,22.60
2018-05-31T11:31:40.555Z,21.87
2018-05-31T11:34:09.088Z,17.33
2018-05-31T11:36:37.419Z,13.03
2018-05-31T11:39:05.741Z,18.80
2018-05-31T11:41:34.122Z,17.17
2018-05-31T11:44:02.481Z,21.00
2018-05-31T11:46:30.865Z,21.10
2018-05-31T11:48:59.256Z,18.20
2018-05-31T11:51:27.609Z,14.67
2018-05-31T11:53:56.725Z,9.97
2018-05-31T11:56:25.170Z,12.83
2018-05-31T11:58:53.467Z,14.03
2018-05-31T12:01:22.599Z,13.93
2018-05-31T12:03:51.007Z,11.40
2018-05-31T12:06:19.314Z,9.70
2018-05-31T12:08:48.446Z,20.97
2018-05-31T12:11:16.820Z,18.67
2018-05-31T12:13:45.420Z,9.70
2018-05-31T12:16:13.959Z,13.70
2018-05-31T12:18:42.786Z,10.40
2018-05-31T12:21:11.106Z,18.50
2018-05-31T12:23:39.440Z,15.90
2018-05-31T12:26:07.787Z,12.77
2018-05-31T12:28:36.874Z,12.70
2018-05-31T12:31:05.966Z,10.80
2018-05-31T12:33:34.367Z,14.37
2018-05-31T12:36:02.731Z,10.23
2018-05-31T12:38:31.847Z,9.87
2018-05-31T12:41:00.398Z,14.50
2018-05-31T12:43:28.754Z,13.27
2018-05-31T12:45:57.087Z,13.63
2018-05-31T12:48:25.440Z,15.70
2018-05-31T12:50:53.750Z,9.43
2018-05-31T12:53:22.151Z,15.10
2018-05-31T12:55:50.545Z,18.60
2018-05-31T12:58:18.860Z,9.67
2018-05-31T13:00:47.975Z,13.73
2018-05-31T13:03:16.720Z,16.60
2018-05-31T13:05:45.034Z,10.10
2018-05-31T13:08:14.143Z,9.80
2018-05-31T13:10:42.514Z,13.63
2018-05-31T13:13:11.610Z,9.50
2018-05-31T13:15:40.686Z,18.00
2018-05-31T13:18:09.803Z,9.70
2018-05-31T13:20:38.157Z,10.57
2018-05-31T13:23:06.540Z,13.67
2018-05-31T13:25:36.015Z,12.80
2018-05-31T13:28:04.343Z,11.13
2018-05-31T13:30:34.386Z,10.20
2018-05-31T13:33:02.816Z,17.20
2018-05-31T13:35:31.132Z,11.37
2018-05-31T13:37:59.455Z,13.47
2018-05-31T13:40:27.861Z,16.07
2018-05-31T13:42:56.263Z,14.90
2018-05-31T13:45:25.896Z,12.67
2018-05-31T13:47:54.432Z,10.23
2018-05-31T13:50:23.540Z,10.20
2018-05-31T13:52:52.623Z,8.80
2018-05-31T13:55:21.753Z,10.10
2018-05-31T13:57:50.098Z,15.77
2018-05-31T14:00:18.453Z,13.90
2018-05-31T14:02:46.811Z,14.17
2018-05-31T14:05:15.147Z,8.60
2018-05-31T14:07:44.224Z,9.73
2018-05-31T14:10:12.813Z,13.43
2018-05-31T14:12:41.190Z,9.07
2018-05-31T14:15:10.320Z,9.10
2018-05-31T14:17:38.662Z,13.83
2018-05-31T14:20:07.809Z,19.83
2018-05-31T14:22:36.153Z,12.83
2018-05-31T14:25:04.500Z,8.77
2018-05-31T14:27:32.852Z,12.00
2018-05-31T14:30:02.274Z,8.50
2018-05-31T14:32:30.724Z,8.43
2018-05-31T14:34:59.101Z,12.83
2018-05-31T14:37:27.450Z,18.13
2018-05-31T14:39:55.819Z,14.93
2018-05-31T14:42:24.898Z,8.77
2018-05-31T14:44:53.279Z,7.33
2018-05-31T14:47:21.676Z,7.70
2018-05-31T14:49:50.864Z,9.33
2018-05-31T14:52:19.265Z,8.13
2018-05-31T14:54:48.925Z,9.53
2018-05-31T14:57:17.445Z,10.87
2018-05-31T14:59:45.925Z,8.87
2018-05-31T15:02:14.284Z,14.40
2018-05-31T15:04:42.674Z,10.83
2018-05-31T15:07:11.165Z,10.30
2018-05-31T15:09:39.547Z,13.10
2018-05-31T15:12:07.919Z,10.97
2018-05-31T15:14:36.314Z,27.13
2018-05-31T15:17:05.902Z,14.53
2018-05-31T15:19:34.299Z,7.80
2018-05-31T15:22:03.422Z,10.40
2018-05-31T15:24:31.907Z,18.60
2018-05-31T15:27:00.342Z,13.67
2018-05-31T15:29:28.709Z,9.23
2018-05-31T15:31:57.244Z,12.00
2018-05-31T15:34:25.681Z,19.87
2018-05-31T15:36:54.194Z,7.93
2018-05-31T15:39:24.209Z,9.00
2018-05-31T15:41:53.487Z,8.23
2018-05-31T15:44:21.866Z,11.60
2018-05-31T15:46:50.352Z,11.80
2018-05-31T15:49:18.727Z,13.17
2018-05-31T15:51:47.307Z,19.10
2018-05-31T15:54:15.804Z,9.13
2018-05-31T15:56:45.090Z,9.73
2018-05-31T15:59:13.481Z,12.90
2018-05-31T16:01:42.377Z,13.63
2018-05-31T16:04:16.666Z,16.43
2018-05-31T16:06:45.169Z,9.33
2018-05-31T16:09:13.753Z,13.03
2018-05-31T16:11:42.145Z,13.03
2018-05-31T16:14:11.340Z,14.20
2018-05-31T16:16:39.807Z,14.53
2018-05-31T16:19:08.232Z,13.03
2018-05-31T16:21:36.858Z,15.30
2018-05-31T16:24:05.255Z,12.83
2018-05-31T16:26:33.570Z,12.30
2018-05-31T16:29:01.939Z,10.93
2018-05-31T16:31:31.005Z,9.57
2018-05-31T16:33:59.343Z,11.37
2018-05-31T16:36:27.708Z,10.70
2018-05-31T16:38:56.075Z,18.47
2018-05-31T16:41:24.387Z,22.10
2018-05-31T16:43:53.143Z,13.00
2018-05-31T16:46:21.472Z,12.00
2018-05-31T16:48:49.819Z,13.53
2018-05-31T16:51:18.176Z,11.87
2018-05-31T16:53:46.506Z,19.87
2018-05-31T16:56:14.815Z,16.23
2018-05-31T16:58:43.923Z,16.77
2018-05-31T17:01:13.024Z,12.67
2018-05-31T17:03:41.351Z,10.03
2018-05-31T17:06:10.267Z,12.43
2018-05-31T17:08:38.585Z,14.93
2018-05-31T17:11:06.917Z,21.40
2018-05-31T17:13:35.281Z,14.53
2018-05-31T17:16:03.624Z,13.67
2018-05-31T17:18:31.961Z,21.13
2018-05-31T17:21:00.352Z,13.33
2018-05-31T17:23:28.705Z,25.03
2018-05-31T17:25:57.040Z,21.73
2018-05-31T17:28:25.627Z,24.57
2018-05-31T17:30:53.936Z,11.97
2018-05-31T17:33:22.232Z,14.07
2018-05-31T17:35:50.584Z,20.70
2018-05-31T17:38:18.923Z,14.03
2018-05-31T17:40:47.241Z,19.90
2018-05-31T17:43:15.622Z,18.37
2018-05-31T17:45:43.953Z,26.00
2018-05-31T17:48:12.303Z,16.10
2018-05-31T17:50:41.107Z,16.20
2018-05-31T17:53:09.591Z,16.60
2018-05-31T17:55:37.914Z,20.93
2018-05-31T17:58:06.291Z,16.10
2018-05-31T18:00:34.675Z,14.20
2018-05-31T18:03:03.020Z,22.03
2018-05-31T18:05:31.396Z,13.13
2018-05-31T18:07:59.714Z,10.43
2018-05-31T18:10:29.028Z,20.23
2018-05-31T18:12:57.711Z,14.43
2018-05-31T18:15:26.042Z,11.20
2018-05-31T18:17:55.141Z,21.93
2018-05-31T18:20:23.522Z,17.50
2018-05-31T18:22:51.849Z,31.83
2018-05-31T18:25:20.153Z,12.77
2018-05-31T18:27:49.295Z,15.60
2018-05-31T18:30:17.642Z,20.10
2018-05-31T18:32:46.840Z,18.20
2018-05-31T18:35:16.024Z,21.43
2018-05-31T18:37:44.393Z,27.90
2018-05-31T18:40:12.707Z,18.13
2018-05-31T18:42:41.210Z,21.70
2018-05-31T18:45:09.531Z,15.13
2018-05-31T18:47:37.912Z,11.93
2018-05-31T18:50:06.291Z,21.03
2018-05-31T18:52:34.639Z,26.73
2018-05-31T18:55:02.953Z,25.10
2018-05-31T18:57:31.803Z,25.47
2018-05-31T19:00:00.170Z,15.90
2018-05-31T19:02:28.521Z,25.27
2018-05-31T19:04:57.642Z,21.27
2018-05-31T19:07:26.770Z,33.57
2018-05-31T19:09:55.096Z,18.33
2018-05-31T19:12:28.872Z,17.70
2018-05-31T19:14:57.219Z,22.20
2018-05-31T19:17:25.545Z,24.80
2018-05-31T19:19:55.543Z,21.10
2018-05-31T19:22:23.887Z,21.53
2018-05-31T19:24:57.650Z,25.00
2018-05-31T19:27:26.741Z,22.27
2018-05-31T19:30:00.512Z,12.20
2018-05-31T19:32:28.912Z,16.67
2018-05-31T19:34:57.170Z,23.90
2018-05-31T19:37:25.696Z,23.87
2018-05-31T19:39:54.073Z,23.17
2018-05-31T19:42:28.017Z,16.43
2018-05-31T19:44:56.321Z,9.90
2018-05-31T19:47:24.696Z,13.53
2018-05-31T19:49:53.046Z,28.77
2018-05-31T19:52:26.822Z,22.03
2018-05-31T19:54:55.780Z,22.33
2018-05-31T19:57:24.105Z,25.10
2018-05-31T20:03:10.463Z,20.27
2018-05-31T20:05:38.891Z,16.93
2018-05-31T20:08:07.328Z,12.80
2018-05-31T20:10:35.728Z,27.90
2018-05-31T20:13:04.241Z,25.00
2018-05-31T20:15:33.477Z,17.33
2018-05-31T20:18:01.901Z,23.00
2018-05-31T20:20:30.368Z,18.50
2018-05-31T20:22:58.771Z,11.57
2018-05-31T20:25:27.134Z,17.03
2018-05-31T20:27:55.615Z,10.03
2018-05-31T20:30:24.104Z,10.73
2018-05-31T20:32:52.781Z,15.87
2018-05-31T20:35:21.885Z,16.90
2018-05-31T20:37:50.346Z,11.20
2018-05-31T20:40:18.832Z,7.63
2018-05-31T20:42:47.293Z,14.33
2018-05-31T20:45:15.713Z,9.57
2018-05-31T20:47:44.083Z,31.90
2018-05-31T20:50:12.544Z,11.93
2018-05-31T20:52:40.954Z,8.20
2018-05-31T20:55:09.405Z,9.37
2018-05-31T20:57:38.176Z,16.60
2018-05-31T21:00:06.495Z,12.27
2018-05-31T21:02:34.872Z,13.43
2018-05-31T21:05:03.331Z,14.03
2018-05-31T21:07:31.689Z,18.23
2018-05-31T21:10:00.065Z,11.53
2018-05-31T21:12:28.440Z,17.63
2018-05-31T21:14:56.857Z,12.47
2018-05-31T21:17:25.170Z,17.23
2018-05-31T21:19:53.887Z,14.67
2018-05-31T21:22:22.492Z,14.73
2018-05-31T21:24:51.494Z,9.70
2018-05-31T21:27:20.174Z,9.10
2018-05-31T21:29:48.531Z,20.83
2018-05-31T21:32:16.907Z,22.23
2018-05-31T21:34:45.952Z,10.73
2018-05-31T21:37:14.296Z,13.13
2018-05-31T21:39:42.646Z,14.03
2018-05-31T21:42:11.237Z,10.93
2018-05-31T21:44:39.554Z,14.03
2018-05-31T21:47:07.906Z,13.03
2018-05-31T21:49:36.269Z,12.57
2018-05-31T21:52:04.621Z,16.40
2018-05-31T21:54:33.729Z,16.57
2018-05-31T21:57:02.863Z,19.10
2018-05-31T21:59:31.198Z,11.00
2018-05-31T22:01:59.534Z,8.20
2018-05-31T22:04:27.967Z,20.73
2018-05-31T22:06:56.300Z,16.10
2018-05-31T22:09:24.668Z,28.73
2018-05-31T22:11:53.598Z,19.03
2018-05-31T22:14:21.914Z,8.27
2018-05-31T22:16:50.270Z,12.53
2018-05-31T22:19:19.445Z,16.10
2018-05-31T22:21:47.728Z,9.20
2018-05-31T22:24:16.045Z,11.43
2018-05-31T22:26:44.887Z,23.10
2018-05-31T22:29:13.228Z,12.47
2018-05-31T22:31:41.553Z,11.10
2018-05-31T22:34:09.906Z,6.97
2018-05-31T22:36:38.255Z,11.50
2018-05-31T22:39:06.587Z,8.37
2018-05-31T22:41:34.958Z,14.00
2018-05-31T22:44:03.271Z,8.80
2018-05-31T22:46:31.591Z,13.50
2018-05-31T22:49:00.100Z,19.03
2018-05-31T22:51:28.424Z,12.73
2018-05-31T22:53:56.731Z,7.00
2018-05-31T22:56:25.090Z,21.20
2018-05-31T22:58:54.328Z,23.13
2018-05-31T23:01:22.637Z,13.17
2018-05-31T23:03:51.769Z,10.53
2018-05-31T23:06:20.117Z,10.53
2018-05-31T23:08:48.426Z,11.30
2018-05-31T23:11:17.136Z,16.80
2018-05-31T23:13:45.431Z,9.60
2018-05-31T23:16:13.730Z,6.70
2018-05-31T23:18:42.083Z,8.83
2018-05-31T23:21:10.423Z,21.10
2018-05-31T23:23:38.773Z,13.93
2018-05-31T23:26:07.101Z,7.77
2018-05-31T23:28:35.420Z,9.10
2018-05-31T23:31:04.510Z,16.83
2018-05-31T23:33:33.773Z,17.80
2018-05-31T23:36:02.080Z,9.70
2018-05-31T23:38:30.379Z,20.53
2018-05-31T23:40:59.522Z,15.10
2018-05-31T23:43:27.829Z,5.70
2018-05-31T23:45:56.181Z,15.43
2018-05-31T23:48:25.308Z,12.43
2018-05-31T23:50:54.419Z,19.60
2018-05-31T23:53:23.498Z,14.80
2018-05-31T23:55:51.975Z,13.47
2018-05-31T23:58:20.305Z,6.37
